sensor_id;sensor_type;location;lat;lon;timestamp;temperature;humidity
34249;DHT22;20508;50.834;3.160;2022-10-13T00:00:41;19.30;53.90
34249;DHT22;20508;50.834;3.160;2022-10-13T00:03:07;19.40;53.90
34249;DHT22;20508;50.834;3.160;2022-10-13T00:05:34;19.40;54.00
34249;DHT22;20508;50.834;3.160;2022-10-13T00:08:04;19.40;53.90
34249;DHT22;20508;50.834;3.160;2022-10-13T00:10:30;19.40;53.90
34249;DHT22;20508;50.834;3.160;2022-10-13T00:12:59;19.40;53.90
34249;DHT22;20508;50.834;3.160;2022-10-13T00:15:26;19.50;53.80
34249;DHT22;20508;50.834;3.160;2022-10-13T00:17:52;19.50;53.70
34249;DHT22;20508;50.834;3.160;2022-10-13T00:20:18;19.50;53.70
34249;DHT22;20508;50.834;3.160;2022-10-13T00:22:44;19.50;53.70
34249;DHT22;20508;50.834;3.160;2022-10-13T00:25:10;19.60;53.70
34249;DHT22;20508;50.834;3.160;2022-10-13T00:27:39;19.60;53.80
34249;DHT22;20508;50.834;3.160;2022-10-13T00:30:06;19.60;53.70
34249;DHT22;20508;50.834;3.160;2022-10-13T00:32:32;19.60;53.70
34249;DHT22;20508;50.834;3.160;2022-10-13T00:34:58;19.60;53.80
34249;DHT22;20508;50.834;3.160;2022-10-13T00:37:25;19.60;53.80
34249;DHT22;20508;50.834;3.160;2022-10-13T00:39:52;19.60;53.80
34249;DHT22;20508;50.834;3.160;2022-10-13T00:42:18;19.60;53.90
34249;DHT22;20508;50.834;3.160;2022-10-13T00:45:04;19.50;54.00
34249;DHT22;20508;50.834;3.160;2022-10-13T00:47:44;19.60;54.00
34249;DHT22;20508;50.834;3.160;2022-10-13T00:50:27;19.60;54.10
34249;DHT22;20508;50.834;3.160;2022-10-13T00:52:57;19.50;54.20
34249;DHT22;20508;50.834;3.160;2022-10-13T00:55:29;19.50;54.30
34249;DHT22;20508;50.834;3.160;2022-10-13T00:57:57;19.50;54.30
34249;DHT22;20508;50.834;3.160;2022-10-13T01:00:27;19.50;54.30
34249;DHT22;20508;50.834;3.160;2022-10-13T01:02:55;19.50;54.30
34249;DHT22;20508;50.834;3.160;2022-10-13T01:05:25;19.50;54.30
34249;DHT22;20508;50.834;3.160;2022-10-13T01:07:51;19.50;54.50
34249;DHT22;20508;50.834;3.160;2022-10-13T01:15:53;19.50;54.70
34249;DHT22;20508;50.834;3.160;2022-10-13T01:27:07;19.40;54.80
34249;DHT22;20508;50.834;3.160;2022-10-13T01:29:50;19.40;55.00
34249;DHT22;20508;50.834;3.160;2022-10-13T01:37:56;19.40;54.90
34249;DHT22;20508;50.834;3.160;2022-10-13T01:43:26;19.40;55.00
34249;DHT22;20508;50.834;3.160;2022-10-13T01:45:56;19.40;55.60
34249;DHT22;20508;50.834;3.160;2022-10-13T01:48:24;19.40;55.00
34249;DHT22;20508;50.834;3.160;2022-10-13T01:50:52;19.40;55.00
34249;DHT22;20508;50.834;3.160;2022-10-13T01:53:19;19.40;55.00
34249;DHT22;20508;50.834;3.160;2022-10-13T01:55:56;19.40;55.00
34249;DHT22;20508;50.834;3.160;2022-10-13T01:58:26;19.40;55.00
34249;DHT22;20508;50.834;3.160;2022-10-13T02:04:16;19.40;55.10
34249;DHT22;20508;50.834;3.160;2022-10-13T02:07:00;19.40;55.20
34249;DHT22;20508;50.834;3.160;2022-10-13T02:09:34;19.30;55.30
34249;DHT22;20508;50.834;3.160;2022-10-13T02:12:11;19.30;55.20
34249;DHT22;20508;50.834;3.160;2022-10-13T02:14:41;19.30;55.50
34249;DHT22;20508;50.834;3.160;2022-10-13T02:17:08;19.30;55.40
34249;DHT22;20508;50.834;3.160;2022-10-13T02:19:38;19.30;55.30
34249;DHT22;20508;50.834;3.160;2022-10-13T02:22:05;19.30;55.30
34249;DHT22;20508;50.834;3.160;2022-10-13T02:24:33;19.30;55.30
34249;DHT22;20508;50.834;3.160;2022-10-13T02:26:59;19.40;55.40
34249;DHT22;20508;50.834;3.160;2022-10-13T02:29:25;19.40;55.30
34249;DHT22;20508;50.834;3.160;2022-10-13T02:31:51;19.40;55.40
34249;DHT22;20508;50.834;3.160;2022-10-13T02:34:19;19.40;55.40
34249;DHT22;20508;50.834;3.160;2022-10-13T02:36:48;19.40;55.40
34249;DHT22;20508;50.834;3.160;2022-10-13T02:39:16;19.40;55.50
34249;DHT22;20508;50.834;3.160;2022-10-13T02:41:42;19.30;55.40
34249;DHT22;20508;50.834;3.160;2022-10-13T02:44:08;19.40;55.60
34249;DHT22;20508;50.834;3.160;2022-10-13T02:46:37;19.30;55.70
34249;DHT22;20508;50.834;3.160;2022-10-13T02:49:03;19.30;55.70
34249;DHT22;20508;50.834;3.160;2022-10-13T02:51:30;19.30;55.80
34249;DHT22;20508;50.834;3.160;2022-10-13T02:53:56;19.30;55.80
34249;DHT22;20508;50.834;3.160;2022-10-13T02:56:22;19.30;55.80
34249;DHT22;20508;50.834;3.160;2022-10-13T02:58:50;19.30;55.80
34249;DHT22;20508;50.834;3.160;2022-10-13T03:01:17;19.30;55.80
34249;DHT22;20508;50.834;3.160;2022-10-13T03:03:43;19.30;55.80
34249;DHT22;20508;50.834;3.160;2022-10-13T03:06:12;19.40;55.90
34249;DHT22;20508;50.834;3.160;2022-10-13T03:08:38;19.40;55.80
34249;DHT22;20508;50.834;3.160;2022-10-13T03:11:04;19.40;55.80
34249;DHT22;20508;50.834;3.160;2022-10-13T03:13:30;19.40;55.80
34249;DHT22;20508;50.834;3.160;2022-10-13T03:16:00;19.40;55.80
34249;DHT22;20508;50.834;3.160;2022-10-13T03:18:26;19.40;55.80
34249;DHT22;20508;50.834;3.160;2022-10-13T03:20:58;19.40;55.80
34249;DHT22;20508;50.834;3.160;2022-10-13T03:23:24;19.50;55.80
34249;DHT22;20508;50.834;3.160;2022-10-13T03:25:51;19.40;55.80
34249;DHT22;20508;50.834;3.160;2022-10-13T03:28:17;19.50;55.80
34249;DHT22;20508;50.834;3.160;2022-10-13T03:30:43;19.50;55.80
34249;DHT22;20508;50.834;3.160;2022-10-13T03:33:09;19.50;55.70
34249;DHT22;20508;50.834;3.160;2022-10-13T03:35:35;19.50;55.70
34249;DHT22;20508;50.834;3.160;2022-10-13T03:38:02;19.50;55.70
34249;DHT22;20508;50.834;3.160;2022-10-13T03:40:30;19.50;55.70
34249;DHT22;20508;50.834;3.160;2022-10-13T03:42:56;19.50;55.70
34249;DHT22;20508;50.834;3.160;2022-10-13T03:45:22;19.60;55.70
34249;DHT22;20508;50.834;3.160;2022-10-13T03:47:48;19.60;55.70
34249;DHT22;20508;50.834;3.160;2022-10-13T03:50:14;19.60;55.60
34249;DHT22;20508;50.834;3.160;2022-10-13T03:52:41;19.60;55.60
34249;DHT22;20508;50.834;3.160;2022-10-13T03:55:07;19.60;55.50
34249;DHT22;20508;50.834;3.160;2022-10-13T03:57:33;19.60;55.50
34249;DHT22;20508;50.834;3.160;2022-10-13T04:00:00;19.50;55.50
34249;DHT22;20508;50.834;3.160;2022-10-13T04:02:28;19.60;55.50
34249;DHT22;20508;50.834;3.160;2022-10-13T04:04:54;19.50;55.50
34249;DHT22;20508;50.834;3.160;2022-10-13T04:07:20;19.60;55.50
34249;DHT22;20508;50.834;3.160;2022-10-13T04:09:47;19.50;55.60
34249;DHT22;20508;50.834;3.160;2022-10-13T04:12:13;19.50;55.60
34249;DHT22;20508;50.834;3.160;2022-10-13T04:14:39;19.40;55.60
34249;DHT22;20508;50.834;3.160;2022-10-13T04:17:05;19.50;55.70
34249;DHT22;20508;50.834;3.160;2022-10-13T04:19:32;19.50;55.80
34249;DHT22;20508;50.834;3.160;2022-10-13T04:21:58;19.40;55.80
34249;DHT22;20508;50.834;3.160;2022-10-13T04:24:24;19.40;55.80
34249;DHT22;20508;50.834;3.160;2022-10-13T04:26:50;19.40;55.80
34249;DHT22;20508;50.834;3.160;2022-10-13T04:29:16;19.40;56.10
34249;DHT22;20508;50.834;3.160;2022-10-13T04:31:43;19.40;55.80
34249;DHT22;20508;50.834;3.160;2022-10-13T04:34:09;19.40;55.80
34249;DHT22;20508;50.834;3.160;2022-10-13T04:36:36;19.40;55.80
34249;DHT22;20508;50.834;3.160;2022-10-13T04:39:03;19.40;55.80
34249;DHT22;20508;50.834;3.160;2022-10-13T04:41:29;19.50;55.90
34249;DHT22;20508;50.834;3.160;2022-10-13T04:43:58;19.40;55.80
34249;DHT22;20508;50.834;3.160;2022-10-13T04:46:27;19.50;55.80
34249;DHT22;20508;50.834;3.160;2022-10-13T04:48:54;19.40;55.70
34249;DHT22;20508;50.834;3.160;2022-10-13T04:51:22;19.50;55.80
34249;DHT22;20508;50.834;3.160;2022-10-13T04:53:54;19.40;55.80
34249;DHT22;20508;50.834;3.160;2022-10-13T04:56:24;19.40;55.80
34249;DHT22;20508;50.834;3.160;2022-10-13T04:58:50;19.40;55.90
34249;DHT22;20508;50.834;3.160;2022-10-13T05:01:20;19.40;56.00
34249;DHT22;20508;50.834;3.160;2022-10-13T05:03:49;19.40;56.00
34249;DHT22;20508;50.834;3.160;2022-10-13T05:06:18;19.30;56.00
34249;DHT22;20508;50.834;3.160;2022-10-13T05:08:45;19.30;56.10
34249;DHT22;20508;50.834;3.160;2022-10-13T05:11:11;19.30;56.10
34249;DHT22;20508;50.834;3.160;2022-10-13T05:13:37;19.30;56.10
34249;DHT22;20508;50.834;3.160;2022-10-13T05:16:12;19.30;56.20
34249;DHT22;20508;50.834;3.160;2022-10-13T05:18:39;19.40;56.00
34249;DHT22;20508;50.834;3.160;2022-10-13T05:21:22;19.30;56.10
34249;DHT22;20508;50.834;3.160;2022-10-13T05:23:51;19.30;56.00
34249;DHT22;20508;50.834;3.160;2022-10-13T05:26:19;19.30;56.00
34249;DHT22;20508;50.834;3.160;2022-10-13T05:28:46;19.40;56.00
34249;DHT22;20508;50.834;3.160;2022-10-13T05:31:20;19.40;55.90
34249;DHT22;20508;50.834;3.160;2022-10-13T05:33:47;19.40;55.80
34249;DHT22;20508;50.834;3.160;2022-10-13T05:36:16;19.30;55.80
34249;DHT22;20508;50.834;3.160;2022-10-13T05:38:42;19.30;55.80
34249;DHT22;20508;50.834;3.160;2022-10-13T05:41:12;19.30;55.90
34249;DHT22;20508;50.834;3.160;2022-10-13T05:43:41;19.30;55.90
34249;DHT22;20508;50.834;3.160;2022-10-13T05:46:08;19.30;56.00
34249;DHT22;20508;50.834;3.160;2022-10-13T05:48:36;19.30;56.10
34249;DHT22;20508;50.834;3.160;2022-10-13T05:51:09;19.30;56.00
34249;DHT22;20508;50.834;3.160;2022-10-13T05:53:39;19.30;56.00
34249;DHT22;20508;50.834;3.160;2022-10-13T05:56:12;19.20;56.00
34249;DHT22;20508;50.834;3.160;2022-10-13T05:58:43;19.20;56.00
34249;DHT22;20508;50.834;3.160;2022-10-13T06:01:14;19.20;56.00
34249;DHT22;20508;50.834;3.160;2022-10-13T06:03:44;19.20;56.10
34249;DHT22;20508;50.834;3.160;2022-10-13T06:06:11;19.20;56.00
34249;DHT22;20508;50.834;3.160;2022-10-13T06:08:37;19.30;56.10
34249;DHT22;20508;50.834;3.160;2022-10-13T06:11:04;19.30;56.00
34249;DHT22;20508;50.834;3.160;2022-10-13T06:13:32;19.30;55.90
34249;DHT22;20508;50.834;3.160;2022-10-13T06:16:00;19.30;56.30
34249;DHT22;20508;50.834;3.160;2022-10-13T06:18:26;19.30;55.90
34249;DHT22;20508;50.834;3.160;2022-10-13T06:20:53;19.30;55.90
34249;DHT22;20508;50.834;3.160;2022-10-13T06:23:19;19.30;55.90
34249;DHT22;20508;50.834;3.160;2022-10-13T06:25:52;19.30;55.80
34249;DHT22;20508;50.834;3.160;2022-10-13T06:28:19;19.30;55.70
34249;DHT22;20508;50.834;3.160;2022-10-13T06:30:49;19.20;55.80
34249;DHT22;20508;50.834;3.160;2022-10-13T06:33:21;19.30;55.80
34249;DHT22;20508;50.834;3.160;2022-10-13T06:35:51;19.30;55.80
34249;DHT22;20508;50.834;3.160;2022-10-13T06:38:18;19.30;55.70
34249;DHT22;20508;50.834;3.160;2022-10-13T06:40:44;19.30;55.80
34249;DHT22;20508;50.834;3.160;2022-10-13T06:43:13;19.30;55.70
34249;DHT22;20508;50.834;3.160;2022-10-13T06:45:39;19.30;55.60
34249;DHT22;20508;50.834;3.160;2022-10-13T06:48:05;19.40;55.60
34249;DHT22;20508;50.834;3.160;2022-10-13T06:50:31;19.40;55.40
34249;DHT22;20508;50.834;3.160;2022-10-13T06:53:00;19.50;55.40
34249;DHT22;20508;50.834;3.160;2022-10-13T06:55:26;19.50;55.40
34249;DHT22;20508;50.834;3.160;2022-10-13T06:57:52;19.50;55.30
34249;DHT22;20508;50.834;3.160;2022-10-13T07:00:19;19.50;55.40
34249;DHT22;20508;50.834;3.160;2022-10-13T07:02:49;19.50;55.30
34249;DHT22;20508;50.834;3.160;2022-10-13T07:05:16;19.50;55.90
34249;DHT22;20508;50.834;3.160;2022-10-13T07:07:42;19.50;55.40
34249;DHT22;20508;50.834;3.160;2022-10-13T07:10:08;19.40;55.30
34249;DHT22;20508;50.834;3.160;2022-10-13T07:12:34;19.40;55.30
34249;DHT22;20508;50.834;3.160;2022-10-13T07:15:01;19.40;55.40
34249;DHT22;20508;50.834;3.160;2022-10-13T07:17:30;19.40;55.40
34249;DHT22;20508;50.834;3.160;2022-10-13T07:19:56;19.30;55.50
34249;DHT22;20508;50.834;3.160;2022-10-13T07:22:23;19.30;55.60
34249;DHT22;20508;50.834;3.160;2022-10-13T07:24:49;19.30;55.60
34249;DHT22;20508;50.834;3.160;2022-10-13T07:27:15;19.20;55.60
34249;DHT22;20508;50.834;3.160;2022-10-13T07:29:44;19.30;55.70
34249;DHT22;20508;50.834;3.160;2022-10-13T07:32:10;19.30;55.70
34249;DHT22;20508;50.834;3.160;2022-10-13T07:34:37;19.30;55.60
34249;DHT22;20508;50.834;3.160;2022-10-13T07:37:03;19.30;55.70
34249;DHT22;20508;50.834;3.160;2022-10-13T07:39:29;19.30;55.50
34249;DHT22;20508;50.834;3.160;2022-10-13T07:41:55;19.30;55.50
34249;DHT22;20508;50.834;3.160;2022-10-13T07:44:22;19.30;55.50
34249;DHT22;20508;50.834;3.160;2022-10-13T07:46:48;19.30;55.50
34249;DHT22;20508;50.834;3.160;2022-10-13T07:49:14;19.30;55.50
34249;DHT22;20508;50.834;3.160;2022-10-13T07:51:40;19.30;55.50
34249;DHT22;20508;50.834;3.160;2022-10-13T07:54:06;19.40;55.60
34249;DHT22;20508;50.834;3.160;2022-10-13T07:56:40;19.30;55.60
34249;DHT22;20508;50.834;3.160;2022-10-13T07:59:07;19.30;55.70
34249;DHT22;20508;50.834;3.160;2022-10-13T08:01:33;19.30;55.80
34249;DHT22;20508;50.834;3.160;2022-10-13T08:03:59;19.30;55.80
34249;DHT22;20508;50.834;3.160;2022-10-13T08:06:25;19.20;55.70
34249;DHT22;20508;50.834;3.160;2022-10-13T08:08:52;19.20;55.80
34249;DHT22;20508;50.834;3.160;2022-10-13T08:11:18;19.20;55.80
34249;DHT22;20508;50.834;3.160;2022-10-13T08:13:48;19.20;55.90
34249;DHT22;20508;50.834;3.160;2022-10-13T08:16:15;19.30;55.80
34249;DHT22;20508;50.834;3.160;2022-10-13T08:18:42;19.30;55.90
34249;DHT22;20508;50.834;3.160;2022-10-13T08:21:12;19.30;55.90
34249;DHT22;20508;50.834;3.160;2022-10-13T08:23:38;19.30;55.90
34249;DHT22;20508;50.834;3.160;2022-10-13T08:26:17;19.30;55.90
34249;DHT22;20508;50.834;3.160;2022-10-13T08:28:44;19.30;55.90
34249;DHT22;20508;50.834;3.160;2022-10-13T08:31:10;19.30;55.90
34249;DHT22;20508;50.834;3.160;2022-10-13T08:33:36;19.30;55.90
34249;DHT22;20508;50.834;3.160;2022-10-13T08:36:03;19.30;56.00
34249;DHT22;20508;50.834;3.160;2022-10-13T08:38:30;19.30;55.90
34249;DHT22;20508;50.834;3.160;2022-10-13T08:40:56;19.30;56.00
34249;DHT22;20508;50.834;3.160;2022-10-13T08:43:23;19.30;56.10
34249;DHT22;20508;50.834;3.160;2022-10-13T08:45:57;19.30;56.10
34249;DHT22;20508;50.834;3.160;2022-10-13T08:48:28;19.30;56.20
34249;DHT22;20508;50.834;3.160;2022-10-13T08:51:00;19.30;56.20
34249;DHT22;20508;50.834;3.160;2022-10-13T08:53:36;19.20;56.20
34249;DHT22;20508;50.834;3.160;2022-10-13T08:56:21;19.20;56.20
34249;DHT22;20508;50.834;3.160;2022-10-13T08:58:49;19.30;56.30
34249;DHT22;20508;50.834;3.160;2022-10-13T09:01:28;19.20;56.30
34249;DHT22;20508;50.834;3.160;2022-10-13T09:03:59;19.30;56.30
34249;DHT22;20508;50.834;3.160;2022-10-13T09:06:40;19.30;56.30
34249;DHT22;20508;50.834;3.160;2022-10-13T09:09:10;19.30;56.20
34249;DHT22;20508;50.834;3.160;2022-10-13T09:11:41;19.30;56.30
34249;DHT22;20508;50.834;3.160;2022-10-13T09:14:11;19.30;57.50
34249;DHT22;20508;50.834;3.160;2022-10-13T09:16:44;19.30;57.50
34249;DHT22;20508;50.834;3.160;2022-10-13T09:19:29;19.30;57.50
34249;DHT22;20508;50.834;3.160;2022-10-13T09:22:21;19.30;57.20
34249;DHT22;20508;50.834;3.160;2022-10-13T09:25:14;19.30;57.20
34249;DHT22;20508;50.834;3.160;2022-10-13T09:27:54;19.30;57.40
34249;DHT22;20508;50.834;3.160;2022-10-13T09:30:31;19.20;57.40
34249;DHT22;20508;50.834;3.160;2022-10-13T09:35:42;19.20;57.50
34249;DHT22;20508;50.834;3.160;2022-10-13T09:38:19;19.20;57.30
34249;DHT22;20508;50.834;3.160;2022-10-13T09:43:39;19.30;57.30
34249;DHT22;20508;50.834;3.160;2022-10-13T09:46:32;19.30;57.40
34249;DHT22;20508;50.834;3.160;2022-10-13T09:49:20;19.30;57.30
34249;DHT22;20508;50.834;3.160;2022-10-13T09:51:49;19.30;57.30
34249;DHT22;20508;50.834;3.160;2022-10-13T09:54:32;19.40;57.50
34249;DHT22;20508;50.834;3.160;2022-10-13T09:59:52;19.40;57.30
34249;DHT22;20508;50.834;3.160;2022-10-13T10:02:30;19.30;57.40
34249;DHT22;20508;50.834;3.160;2022-10-13T10:05:24;19.40;57.50
34249;DHT22;20508;50.834;3.160;2022-10-13T10:08:05;19.40;57.50
34249;DHT22;20508;50.834;3.160;2022-10-13T10:10:35;19.40;57.70
34249;DHT22;20508;50.834;3.160;2022-10-13T10:13:04;19.40;57.90
34249;DHT22;20508;50.834;3.160;2022-10-13T10:19:01;19.60;57.60
34249;DHT22;20508;50.834;3.160;2022-10-13T10:21:43;19.50;57.60
34249;DHT22;20508;50.834;3.160;2022-10-13T10:27:25;19.60;58.00
34249;DHT22;20508;50.834;3.160;2022-10-13T10:29:54;19.60;57.80
34249;DHT22;20508;50.834;3.160;2022-10-13T10:32:58;19.50;57.80
34249;DHT22;20508;50.834;3.160;2022-10-13T10:38:33;19.50;57.90
34249;DHT22;20508;50.834;3.160;2022-10-13T10:44:09;19.40;58.00
34249;DHT22;20508;50.834;3.160;2022-10-13T10:46:41;19.40;58.70
34249;DHT22;20508;50.834;3.160;2022-10-13T10:51:44;19.40;58.50
34249;DHT22;20508;50.834;3.160;2022-10-13T10:59:46;19.50;58.40
34249;DHT22;20508;50.834;3.160;2022-10-13T11:05:03;19.40;58.50
34249;DHT22;20508;50.834;3.160;2022-10-13T11:09:59;19.40;58.60
34249;DHT22;20508;50.834;3.160;2022-10-13T11:15:13;19.50;58.30
34249;DHT22;20508;50.834;3.160;2022-10-13T11:17:43;19.40;58.30
34249;DHT22;20508;50.834;3.160;2022-10-13T11:25:43;19.50;58.40
34249;DHT22;20508;50.834;3.160;2022-10-13T11:30:52;19.50;58.60
34249;DHT22;20508;50.834;3.160;2022-10-13T11:41:57;19.40;58.30
34249;DHT22;20508;50.834;3.160;2022-10-13T11:50:33;19.60;58.70
34249;DHT22;20508;50.834;3.160;2022-10-13T11:53:26;19.50;58.40
34249;DHT22;20508;50.834;3.160;2022-10-13T11:55:57;19.50;58.60
34249;DHT22;20508;50.834;3.160;2022-10-13T11:58:31;19.40;58.60
34249;DHT22;20508;50.834;3.160;2022-10-13T12:01:09;19.50;58.40
34249;DHT22;20508;50.834;3.160;2022-10-13T12:03:39;19.50;58.40
34249;DHT22;20508;50.834;3.160;2022-10-13T12:08:47;19.50;58.80
34249;DHT22;20508;50.834;3.160;2022-10-13T12:11:30;19.40;58.60
34249;DHT22;20508;50.834;3.160;2022-10-13T12:13:57;19.40;58.50
34249;DHT22;20508;50.834;3.160;2022-10-13T12:16:25;19.40;59.00
34249;DHT22;20508;50.834;3.160;2022-10-13T12:18:52;19.40;58.90
34249;DHT22;20508;50.834;3.160;2022-10-13T12:21:20;19.40;58.80
34249;DHT22;20508;50.834;3.160;2022-10-13T12:23:49;19.40;58.90
34249;DHT22;20508;50.834;3.160;2022-10-13T12:26:22;19.40;58.90
34249;DHT22;20508;50.834;3.160;2022-10-13T12:29:01;19.50;58.90
34249;DHT22;20508;50.834;3.160;2022-10-13T12:31:37;19.50;58.90
34249;DHT22;20508;50.834;3.160;2022-10-13T12:34:23;19.50;59.10
34249;DHT22;20508;50.834;3.160;2022-10-13T12:39:22;19.50;59.00
34249;DHT22;20508;50.834;3.160;2022-10-13T12:41:50;19.50;59.10
34249;DHT22;20508;50.834;3.160;2022-10-13T12:44:30;19.40;59.10
34249;DHT22;20508;50.834;3.160;2022-10-13T12:46:58;19.50;59.50
34249;DHT22;20508;50.834;3.160;2022-10-13T12:49:35;19.40;59.40
34249;DHT22;20508;50.834;3.160;2022-10-13T12:52:15;19.50;59.60
34249;DHT22;20508;50.834;3.160;2022-10-13T12:54:48;19.60;59.60
34249;DHT22;20508;50.834;3.160;2022-10-13T12:57:30;19.50;59.70
34249;DHT22;20508;50.834;3.160;2022-10-13T13:02:53;19.60;59.80
34249;DHT22;20508;50.834;3.160;2022-10-13T13:05:39;19.60;60.00
34249;DHT22;20508;50.834;3.160;2022-10-13T13:08:23;19.60;59.60
34249;DHT22;20508;50.834;3.160;2022-10-13T13:11:00;19.70;59.60
34249;DHT22;20508;50.834;3.160;2022-10-13T13:13:28;19.60;59.50
34249;DHT22;20508;50.834;3.160;2022-10-13T13:16:19;19.70;59.90
34249;DHT22;20508;50.834;3.160;2022-10-13T13:18:47;19.70;59.50
34249;DHT22;20508;50.834;3.160;2022-10-13T13:21:15;19.70;59.70
34249;DHT22;20508;50.834;3.160;2022-10-13T13:23:45;19.70;59.10
34249;DHT22;20508;50.834;3.160;2022-10-13T13:28:51;19.70;59.50
34249;DHT22;20508;50.834;3.160;2022-10-13T13:31:19;19.70;59.70
34249;DHT22;20508;50.834;3.160;2022-10-13T13:33:46;19.70;59.80
34249;DHT22;20508;50.834;3.160;2022-10-13T13:36:16;19.70;59.80
34249;DHT22;20508;50.834;3.160;2022-10-13T13:38:44;19.70;60.00
34249;DHT22;20508;50.834;3.160;2022-10-13T13:41:13;19.60;60.00
34249;DHT22;20508;50.834;3.160;2022-10-13T13:43:40;19.50;60.50
34249;DHT22;20508;50.834;3.160;2022-10-13T13:46:11;19.50;60.20
34249;DHT22;20508;50.834;3.160;2022-10-13T13:48:38;19.60;60.50
34249;DHT22;20508;50.834;3.160;2022-10-13T13:51:04;19.50;60.40
34249;DHT22;20508;50.834;3.160;2022-10-13T13:53:30;19.50;60.70
34249;DHT22;20508;50.834;3.160;2022-10-13T13:55:56;19.60;60.50
34249;DHT22;20508;50.834;3.160;2022-10-13T13:58:23;19.50;60.70
34249;DHT22;20508;50.834;3.160;2022-10-13T14:00:49;19.60;60.60
34249;DHT22;20508;50.834;3.160;2022-10-13T14:03:15;19.60;60.70
34249;DHT22;20508;50.834;3.160;2022-10-13T14:05:41;19.60;60.70
34249;DHT22;20508;50.834;3.160;2022-10-13T14:08:08;19.60;60.80
34249;DHT22;20508;50.834;3.160;2022-10-13T14:10:37;19.60;61.10
34249;DHT22;20508;50.834;3.160;2022-10-13T14:13:03;19.60;60.90
34249;DHT22;20508;50.834;3.160;2022-10-13T14:15:30;19.50;61.00
34249;DHT22;20508;50.834;3.160;2022-10-13T14:17:56;19.60;61.00
34249;DHT22;20508;50.834;3.160;2022-10-13T14:20:22;19.50;60.90
34249;DHT22;20508;50.834;3.160;2022-10-13T14:22:48;19.50;60.90
34249;DHT22;20508;50.834;3.160;2022-10-13T14:25:17;19.50;61.00
34249;DHT22;20508;50.834;3.160;2022-10-13T14:27:43;19.50;61.10
34249;DHT22;20508;50.834;3.160;2022-10-13T14:30:10;19.50;61.10
34249;DHT22;20508;50.834;3.160;2022-10-13T14:32:39;19.40;61.00
34249;DHT22;20508;50.834;3.160;2022-10-13T14:35:06;19.50;60.40
34249;DHT22;20508;50.834;3.160;2022-10-13T14:37:32;19.50;60.60
34249;DHT22;20508;50.834;3.160;2022-10-13T14:40:07;19.50;60.50
34249;DHT22;20508;50.834;3.160;2022-10-13T14:42:33;19.50;60.70
34249;DHT22;20508;50.834;3.160;2022-10-13T14:44:59;19.50;60.60
34249;DHT22;20508;50.834;3.160;2022-10-13T14:47:27;19.50;60.50
34249;DHT22;20508;50.834;3.160;2022-10-13T14:49:53;19.50;60.50
34249;DHT22;20508;50.834;3.160;2022-10-13T14:52:19;19.50;60.50
34249;DHT22;20508;50.834;3.160;2022-10-13T14:54:45;19.50;60.30
34249;DHT22;20508;50.834;3.160;2022-10-13T14:57:12;19.50;60.40
34249;DHT22;20508;50.834;3.160;2022-10-13T14:59:40;19.50;60.30
34249;DHT22;20508;50.834;3.160;2022-10-13T15:02:09;19.50;61.10
34249;DHT22;20508;50.834;3.160;2022-10-13T15:04:35;19.50;60.30
34249;DHT22;20508;50.834;3.160;2022-10-13T15:07:01;19.50;60.30
34249;DHT22;20508;50.834;3.160;2022-10-13T15:09:27;19.50;60.30
34249;DHT22;20508;50.834;3.160;2022-10-13T15:11:54;19.50;60.30
34249;DHT22;20508;50.834;3.160;2022-10-13T15:14:22;19.50;60.40
34249;DHT22;20508;50.834;3.160;2022-10-13T15:16:49;19.50;60.10
34249;DHT22;20508;50.834;3.160;2022-10-13T15:19:17;19.50;60.20
34249;DHT22;20508;50.834;3.160;2022-10-13T15:21:43;19.40;60.00
34249;DHT22;20508;50.834;3.160;2022-10-13T15:24:12;19.40;60.00
34249;DHT22;20508;50.834;3.160;2022-10-13T15:26:38;19.40;60.10
34249;DHT22;20508;50.834;3.160;2022-10-13T15:29:04;19.50;60.30
34249;DHT22;20508;50.834;3.160;2022-10-13T15:31:33;19.50;60.10
34249;DHT22;20508;50.834;3.160;2022-10-13T15:34:00;19.50;60.20
34249;DHT22;20508;50.834;3.160;2022-10-13T15:36:26;19.50;60.10
34249;DHT22;20508;50.834;3.160;2022-10-13T15:38:53;19.50;60.10
34249;DHT22;20508;50.834;3.160;2022-10-13T15:41:22;19.50;59.90
34249;DHT22;20508;50.834;3.160;2022-10-13T15:43:49;19.60;60.20
34249;DHT22;20508;50.834;3.160;2022-10-13T15:46:16;19.60;60.20
34249;DHT22;20508;50.834;3.160;2022-10-13T15:48:52;19.60;60.10
34249;DHT22;20508;50.834;3.160;2022-10-13T15:51:22;19.60;60.10
34249;DHT22;20508;50.834;3.160;2022-10-13T15:53:53;19.50;59.90
34249;DHT22;20508;50.834;3.160;2022-10-13T15:56:20;19.50;60.00
34249;DHT22;20508;50.834;3.160;2022-10-13T15:58:47;19.50;60.20
34249;DHT22;20508;50.834;3.160;2022-10-13T16:01:13;19.50;59.70
34249;DHT22;20508;50.834;3.160;2022-10-13T16:03:41;19.50;59.80
34249;DHT22;20508;50.834;3.160;2022-10-13T16:06:18;19.60;59.80
34249;DHT22;20508;50.834;3.160;2022-10-13T16:08:47;19.60;59.80
34249;DHT22;20508;50.834;3.160;2022-10-13T16:11:16;19.70;59.90
34249;DHT22;20508;50.834;3.160;2022-10-13T16:13:47;19.80;59.80
34249;DHT22;20508;50.834;3.160;2022-10-13T16:16:14;19.90;59.70
34249;DHT22;20508;50.834;3.160;2022-10-13T16:18:40;19.90;59.90
34249;DHT22;20508;50.834;3.160;2022-10-13T16:21:15;19.90;59.90
34249;DHT22;20508;50.834;3.160;2022-10-13T16:23:42;20.00;60.10
34249;DHT22;20508;50.834;3.160;2022-10-13T16:26:08;20.00;60.20
34249;DHT22;20508;50.834;3.160;2022-10-13T16:28:35;20.00;60.20
34249;DHT22;20508;50.834;3.160;2022-10-13T16:31:03;20.00;60.30
34249;DHT22;20508;50.834;3.160;2022-10-13T16:33:29;20.10;60.40
34249;DHT22;20508;50.834;3.160;2022-10-13T16:36:07;20.10;60.60
34249;DHT22;20508;50.834;3.160;2022-10-13T16:38:35;20.10;60.40
34249;DHT22;20508;50.834;3.160;2022-10-13T16:41:06;20.10;60.70
34249;DHT22;20508;50.834;3.160;2022-10-13T16:43:33;20.10;60.80
34249;DHT22;20508;50.834;3.160;2022-10-13T16:46:02;20.00;61.00
34249;DHT22;20508;50.834;3.160;2022-10-13T16:48:30;20.00;61.10
34249;DHT22;20508;50.834;3.160;2022-10-13T16:51:02;20.00;61.10
34249;DHT22;20508;50.834;3.160;2022-10-13T16:53:31;20.00;61.30
34249;DHT22;20508;50.834;3.160;2022-10-13T16:55:57;19.90;61.40
34249;DHT22;20508;50.834;3.160;2022-10-13T16:58:23;19.90;61.90
34249;DHT22;20508;50.834;3.160;2022-10-13T17:00:50;19.90;61.70
34249;DHT22;20508;50.834;3.160;2022-10-13T17:03:18;19.90;61.50
34249;DHT22;20508;50.834;3.160;2022-10-13T17:05:47;20.00;61.70
34249;DHT22;20508;50.834;3.160;2022-10-13T17:08:16;20.00;61.80
34249;DHT22;20508;50.834;3.160;2022-10-13T17:10:42;20.00;61.70
34249;DHT22;20508;50.834;3.160;2022-10-13T17:13:08;20.00;61.70
34249;DHT22;20508;50.834;3.160;2022-10-13T17:15:34;20.00;61.80
34249;DHT22;20508;50.834;3.160;2022-10-13T17:18:01;20.10;61.80
34249;DHT22;20508;50.834;3.160;2022-10-13T17:20:29;20.10;61.90